createdAt,value
2022-08-04T00:01:03.951Z,21.20
2022-08-04T00:05:30.025Z,21.10
2022-08-04T00:09:49.195Z,21.00
2022-08-04T00:14:10.853Z,20.90
2022-08-04T00:18:20.853Z,20.90
2022-08-04T00:22:30.264Z,20.80
2022-08-04T00:26:37.816Z,20.80
2022-08-04T00:30:44.669Z,20.80
2022-08-04T00:34:52.515Z,20.80
2022-08-04T00:39:00.808Z,20.80
2022-08-04T00:43:34.772Z,20.80
2022-08-04T00:48:06.195Z,20.70
2022-08-04T00:52:33.927Z,20.50
2022-08-04T00:56:46.925Z,20.30
2022-08-04T01:01:08.515Z,20.30
2022-08-04T01:05:39.736Z,20.20
2022-08-04T01:10:04.477Z,20.20
2022-08-04T01:14:29.969Z,20.20
2022-08-04T01:19:00.236Z,20.10
2022-08-04T01:23:44.700Z,20.10
2022-08-04T01:28:29.979Z,20.00
2022-08-04T01:32:41.109Z,19.90
2022-08-04T01:36:59.199Z,19.90
2022-08-04T01:41:08.720Z,19.80
2022-08-04T01:45:15.952Z,19.60
2022-08-04T01:49:28.321Z,19.50
2022-08-04T01:53:39.198Z,19.50
2022-08-04T01:57:48.766Z,19.40
2022-08-04T02:01:55.686Z,19.40
2022-08-04T02:06:31.653Z,19.40
2022-08-04T02:11:02.421Z,19.50
2022-08-04T02:15:30.209Z,19.40
2022-08-04T02:19:57.180Z,19.30
2022-08-04T02:24:12.186Z,19.30
2022-08-04T02:28:18.872Z,19.40
2022-08-04T02:32:27.356Z,19.50
2022-08-04T02:36:40.616Z,19.50
2022-08-04T02:40:47.975Z,19.40
2022-08-04T02:44:58.468Z,19.40
2022-08-04T02:49:08.060Z,19.30
2022-08-04T02:53:16.559Z,19.30
2022-08-04T02:57:26.777Z,19.30
2022-08-04T03:01:34.056Z,19.30
2022-08-04T03:06:17.697Z,19.20
2022-08-04T03:11:02.364Z,19.20
2022-08-04T03:15:28.831Z,19.20
2022-08-04T03:19:57.596Z,19.20
2022-08-04T03:24:40.636Z,19.20
2022-08-04T03:29:06.836Z,19.20
2022-08-04T03:33:59.792Z,19.20
2022-08-04T03:38:40.964Z,19.20
2022-08-04T03:43:57.014Z,19.10
2022-08-04T03:48:21.833Z,19.00
2022-08-04T03:52:52.896Z,18.90
2022-08-04T03:57:24.052Z,18.90
2022-08-04T04:02:02.567Z,18.80
2022-08-04T04:06:29.176Z,18.70
2022-08-04T04:10:56.905Z,18.60
2022-08-04T04:15:27.643Z,18.70
2022-08-04T04:20:00.593Z,18.60
2022-08-04T04:24:10.329Z,18.60
2022-08-04T04:28:52.158Z,18.70
2022-08-04T04:33:18.893Z,18.80
2022-08-04T04:37:48.695Z,18.80
2022-08-04T04:42:22.298Z,18.80
2022-08-04T04:46:48.580Z,18.80
2022-08-04T04:51:19.673Z,18.50
2022-08-04T04:55:31.387Z,18.40
2022-08-04T04:59:42.639Z,18.50
2022-08-04T05:04:16.714Z,18.60
2022-08-04T05:08:43.868Z,18.70
2022-08-04T05:14:35.577Z,18.60
2022-08-04T05:17:45.172Z,18.80
2022-08-04T05:22:03.962Z,19.10
2022-08-04T05:26:14.644Z,19.50
2022-08-04T05:30:22.924Z,19.90
2022-08-04T05:34:33.858Z,20.20
2022-08-04T05:38:43.739Z,20.40
2022-08-04T05:42:51.998Z,20.60
2022-08-04T05:46:59.497Z,21.00
2022-08-04T05:51:09.152Z,21.20
2022-08-04T05:55:57.116Z,21.50
2022-08-04T05:59:46.748Z,21.60
2022-08-04T06:03:55.897Z,21.90
2022-08-04T06:08:12.027Z,22.10
2022-08-04T06:12:41.873Z,22.40
2022-08-04T06:16:51.344Z,22.60
2022-08-04T06:21:00.159Z,22.70
2022-08-04T06:25:10.776Z,22.90
2022-08-04T06:29:51.554Z,23.20
2022-08-04T06:34:05.719Z,23.30
2022-08-04T06:38:13.645Z,23.40
2022-08-04T06:42:27.098Z,23.50
2022-08-04T06:46:37.062Z,23.60
2022-08-04T06:51:32.266Z,23.70
2022-08-04T06:55:14.288Z,23.80
2022-08-04T06:59:22.313Z,24.10
2022-08-04T07:03:30.938Z,24.30
2022-08-04T07:07:58.262Z,24.40
2022-08-04T07:12:07.323Z,24.40
2022-08-04T07:16:15.260Z,24.60
2022-08-04T07:20:35.044Z,24.80
2022-08-04T07:24:43.375Z,25.00
2022-08-04T07:28:50.518Z,25.10
2022-08-04T07:32:58.449Z,25.10
2022-08-04T07:37:05.233Z,25.20
2022-08-04T07:45:39.441Z,25.40
2022-08-04T07:49:54.784Z,25.60
2022-08-04T07:54:05.682Z,25.80
2022-08-04T07:58:12.773Z,26.00
2022-08-04T08:02:22.167Z,26.20
2022-08-04T08:06:32.330Z,26.40
2022-08-04T08:10:47.476Z,26.60
2022-08-04T08:14:55.140Z,26.80
2022-08-04T08:19:02.235Z,27.10
2022-08-04T08:23:09.084Z,27.20
2022-08-04T08:27:16.000Z,27.40
2022-08-04T08:31:24.909Z,27.70
2022-08-04T08:36:04.531Z,27.90
2022-08-04T08:40:32.348Z,28.10
2022-08-04T08:45:08.984Z,28.40
2022-08-04T08:50:02.020Z,28.50
2022-08-04T08:54:25.553Z,28.70
2022-08-04T08:59:15.288Z,29.10
2022-08-04T09:03:51.589Z,29.30
2022-08-04T09:08:15.482Z,29.10
2022-08-04T09:12:30.950Z,29.00
2022-08-04T09:16:42.907Z,29.00
2022-08-04T09:21:16.336Z,28.90
2022-08-04T09:25:46.724Z,28.80
2022-08-04T09:30:10.843Z,28.80
2022-08-04T09:34:39.157Z,28.70
2022-08-04T09:38:54.424Z,29.00
2022-08-04T09:43:19.871Z,29.00
2022-08-04T09:47:47.698Z,29.10
2022-08-04T09:52:07.932Z,29.40
2022-08-04T09:56:40.966Z,29.60
2022-08-04T10:00:52.781Z,29.70
2022-08-04T10:05:03.764Z,30.10
2022-08-04T10:09:16.083Z,30.00
2022-08-04T10:13:48.812Z,30.20
2022-08-04T10:18:19.813Z,30.30
2022-08-04T10:22:55.470Z,30.50
2022-08-04T10:27:16.272Z,30.40
2022-08-04T10:31:29.977Z,30.40
2022-08-04T10:35:46.680Z,29.80
2022-08-04T10:40:34.369Z,29.70
2022-08-04T10:44:57.716Z,29.30
2022-08-04T10:49:09.423Z,29.40
2022-08-04T10:53:21.010Z,29.10
2022-08-04T10:57:41.476Z,28.90
2022-08-04T11:02:02.744Z,28.70
2022-08-04T11:06:11.276Z,28.10
2022-08-04T11:10:21.860Z,27.60
2022-08-04T11:14:42.026Z,27.10
2022-08-04T11:19:09.101Z,26.90
2022-08-04T11:23:17.523Z,26.60
2022-08-04T11:28:04.459Z,26.20
2022-08-04T11:32:21.213Z,25.90
2022-08-04T11:36:53.706Z,25.60
2022-08-04T11:41:11.035Z,25.50
2022-08-04T11:45:24.648Z,25.30
2022-08-04T11:49:31.376Z,25.10
2022-08-04T11:53:59.381Z,25.00
2022-08-04T11:58:06.267Z,24.70
2022-08-04T12:02:56.912Z,24.50
2022-08-04T12:07:30.584Z,24.40
2022-08-04T12:11:51.802Z,24.20
2022-08-04T12:16:18.693Z,24.20
2022-08-04T12:20:38.466Z,24.40
2022-08-04T12:25:07.796Z,24.50
2022-08-04T12:29:18.616Z,24.70
2022-08-04T12:34:03.447Z,24.80
2022-08-04T12:38:07.452Z,25.00
2022-08-04T12:42:21.736Z,25.10
2022-08-04T12:46:30.755Z,25.10
2022-08-04T12:50:39.490Z,25.00
2022-08-04T12:54:51.695Z,25.20
2022-08-04T12:59:13.035Z,25.40
2022-08-04T13:03:21.415Z,25.80
2022-08-04T13:07:35.876Z,25.90
2022-08-04T13:11:56.816Z,26.00
2022-08-04T13:16:08.586Z,26.50
2022-08-04T13:20:28.464Z,27.20
2022-08-04T13:24:56.602Z,27.20
2022-08-04T13:29:16.561Z,26.60
2022-08-04T13:33:32.545Z,26.50
2022-08-04T13:37:40.576Z,26.40
2022-08-04T13:41:53.765Z,26.80
2022-08-04T13:46:13.231Z,27.20
2022-08-04T13:50:30.198Z,27.50
2022-08-04T13:54:46.059Z,27.90
2022-08-04T13:59:01.582Z,28.30
2022-08-04T14:03:19.130Z,28.90
2022-08-04T14:07:32.877Z,29.30
2022-08-04T14:12:06.404Z,29.70
2022-08-04T14:16:21.754Z,29.60
2022-08-04T14:20:28.495Z,29.50
2022-08-04T14:24:35.315Z,29.70
2022-08-04T14:29:25.374Z,29.60
2022-08-04T14:34:01.141Z,29.10
2022-08-04T14:37:48.490Z,29.50
2022-08-04T14:41:55.589Z,29.60
2022-08-04T14:46:05.748Z,29.40
2022-08-04T14:50:14.246Z,29.30
2022-08-04T14:54:32.909Z,29.10
2022-08-04T14:58:39.847Z,29.30
2022-08-04T15:02:47.421Z,29.50
2022-08-04T15:06:54.231Z,29.50
2022-08-04T15:11:02.731Z,29.30
2022-08-04T15:15:35.446Z,29.00
2022-08-04T15:19:37.404Z,28.80
2022-08-04T15:23:44.136Z,28.90
2022-08-04T15:27:53.157Z,28.40
2022-08-04T15:32:09.491Z,27.90
2022-08-04T15:36:39.088Z,27.30
2022-08-04T15:40:52.431Z,27.10
2022-08-04T15:45:04.616Z,26.80
2022-08-04T15:49:22.334Z,27.00
2022-08-04T15:54:03.618Z,27.20
2022-08-04T15:58:14.653Z,27.00
2022-08-04T16:02:33.760Z,27.00
2022-08-04T16:06:41.367Z,27.00
2022-08-04T16:10:49.139Z,27.00
2022-08-04T16:15:16.094Z,27.10
2022-08-04T16:20:01.705Z,27.20
2022-08-04T16:24:37.243Z,27.30
2022-08-04T16:28:44.011Z,27.20
2022-08-04T16:32:52.121Z,27.20
2022-08-04T16:37:00.801Z,27.00
2022-08-04T16:41:07.512Z,27.00
2022-08-04T16:45:14.679Z,26.90
2022-08-04T16:49:21.733Z,27.00
2022-08-04T16:53:57.954Z,26.90
2022-08-04T16:58:04.355Z,26.60
2022-08-04T17:02:12.062Z,26.20
2022-08-04T17:06:19.011Z,26.30
2022-08-04T17:10:52.012Z,25.90
2022-08-04T17:14:58.745Z,25.40
2022-08-04T17:19:07.184Z,25.20
2022-08-04T17:24:14.955Z,25.20
2022-08-04T17:28:19.433Z,25.20
2022-08-04T17:32:32.079Z,25.00
2022-08-04T17:36:39.437Z,25.00
2022-08-04T17:40:57.253Z,24.60
2022-08-04T17:45:50.212Z,24.40
2022-08-04T17:49:52.464Z,24.40
2022-08-04T17:54:02.951Z,24.50
2022-08-04T17:58:21.065Z,24.50
2022-08-04T18:02:32.445Z,24.50
2022-08-04T18:06:50.437Z,24.40
2022-08-04T18:10:58.532Z,24.10
2022-08-04T18:15:22.257Z,24.20
2022-08-04T18:19:31.821Z,24.20
2022-08-04T18:23:43.504Z,24.00
2022-08-04T18:27:58.385Z,24.00
2022-08-04T18:32:05.140Z,23.80
2022-08-04T18:36:34.146Z,23.60
2022-08-04T18:40:53.612Z,23.40
2022-08-04T18:45:02.274Z,23.50
2022-08-04T18:50:40.109Z,23.40
2022-08-04T18:53:44.512Z,23.20
2022-08-04T18:57:59.631Z,23.10
2022-08-04T19:02:12.473Z,23.20
2022-08-04T19:06:26.079Z,23.10
2022-08-04T19:10:34.809Z,22.90
2022-08-04T19:14:41.803Z,22.80
2022-08-04T19:18:48.557Z,22.60
2022-08-04T19:24:28.821Z,22.60
2022-08-04T19:27:23.247Z,22.50
2022-08-04T19:31:45.597Z,22.40
2022-08-04T19:35:53.109Z,22.40
2022-08-04T19:39:59.816Z,22.30
2022-08-04T19:44:07.129Z,22.30
2022-08-04T19:48:19.781Z,22.40
2022-08-04T19:52:33.842Z,22.20
2022-08-04T19:56:42.360Z,22.20
2022-08-04T20:00:51.240Z,22.20
2022-08-04T20:04:58.292Z,22.10
2022-08-04T20:09:25.004Z,21.90
2022-08-04T20:18:34.654Z,21.70
2022-08-04T20:22:50.469Z,21.70
2022-08-04T20:26:52.587Z,21.70
2022-08-04T20:30:59.292Z,21.70
2022-08-04T20:35:07.529Z,21.70
2022-08-04T20:39:22.779Z,21.70
2022-08-04T20:43:31.170Z,21.60
2022-08-04T20:47:39.469Z,21.50
2022-08-04T20:51:46.395Z,21.50
2022-08-04T20:55:57.060Z,21.60
2022-08-04T21:00:06.141Z,21.60
2022-08-04T21:04:31.549Z,20.10
2022-08-04T21:08:38.318Z,21.50
2022-08-04T21:12:49.740Z,21.50
2022-08-04T21:16:57.881Z,21.60
2022-08-04T21:21:05.203Z,21.50
2022-08-04T21:25:15.746Z,21.50
2022-08-04T21:29:23.899Z,21.40
2022-08-04T21:33:50.497Z,21.20
2022-08-04T21:38:01.342Z,21.20
2022-08-04T21:42:28.769Z,21.20
2022-08-04T21:46:44.243Z,21.10
2022-08-04T21:50:51.578Z,21.10
2022-08-04T21:54:58.283Z,21.20
2022-08-04T21:59:14.097Z,21.10
2022-08-04T22:03:51.765Z,21.10
2022-08-04T22:07:50.925Z,20.90
2022-08-04T22:11:58.360Z,20.80
2022-08-04T22:16:10.037Z,20.70
2022-08-04T22:20:27.992Z,20.60
2022-08-04T22:24:35.047Z,20.50
2022-08-04T22:28:44.962Z,20.40
2022-08-04T22:32:51.854Z,20.00
2022-08-04T22:36:58.556Z,19.90
2022-08-04T22:41:09.616Z,19.60
2022-08-04T22:45:16.453Z,19.50
2022-08-04T22:49:25.210Z,19.00
2022-08-04T22:53:38.508Z,18.70
2022-08-04T22:58:05.410Z,18.70
2022-08-04T23:02:12.258Z,18.80
2022-08-04T23:06:24.341Z,18.70
2022-08-04T23:10:31.682Z,18.40
2022-08-04T23:15:27.853Z,18.50
2022-08-04T23:19:40.671Z,18.40
2022-08-04T23:24:02.170Z,18.40
2022-08-04T23:28:21.950Z,18.40
2022-08-04T23:32:31.308Z,18.40
2022-08-04T23:36:38.269Z,18.40
2022-08-04T23:40:50.268Z,18.30
2022-08-04T23:44:58.630Z,18.20
2022-08-04T23:49:44.482Z,18.40
2022-08-04T23:54:02.483Z,18.30
2022-08-04T23:58:18.561Z,18.30
